• Join FlightAware (Why Join?)
  • Login
  • US Flag 
07:34AM EDT


 

Airport Tracker/Info


-or-


 

Live Flight TrackerFlight Track Log ✈ RHC9987 ✈ 30-Jul-2013 ✈ ZPPP / KMG - ZSPD / PVG

Flight Track Log - Related Links

Times and Time Zones

All times are in EDT time to prevent confusion due to time zone crossing. See the RHC9987 flight status page for this flight to view local times or setup timezone preferences in your user account.

Time Position Orientation Groundspeed Altitude Reporting Facility
EDT Latitude Longitude Course Direction KTS MPH feet Rate Location/Type
08:07AM 25.5689 104.0886 66° East  Level Estimated
08:08AM 25.6151 104.2050 66° East  Level Estimated
08:09AM 25.6612 104.3216 66° East  Level Estimated
08:10AM 25.7072 104.4382 66° East  Level Estimated
08:11AM 25.7531 104.5549 66° East  Level Estimated
08:12AM 25.7989 104.6717 66° East  Level Estimated
08:13AM 25.8447 104.7886 66° East  Level Estimated
08:14AM 25.8903 104.9056 67° East  Level Estimated
08:15AM 25.9358 105.0226 67° East  Level Estimated
08:16AM 25.9813 105.1398 67° East  Level Estimated
08:17AM 26.0266 105.2570 67° East  Level Estimated
08:18AM 26.0719 105.3744 67° East  Level Estimated
08:19AM 26.1170 105.4918 67° East  Level Estimated
08:20AM 26.1621 105.6093 67° East  Level Estimated
08:21AM 26.2071 105.7269 67° East  Level Estimated
08:22AM 26.2520 105.8446 67° East  Level Estimated
08:23AM 26.2967 105.9624 67° East  Level Estimated
08:24AM 26.3414 106.0803 67° East  Level Estimated
08:25AM 26.3860 106.1983 67° East  Level Estimated
08:26AM 26.4305 106.3163 67° East  Level Estimated
08:27AM 26.4749 106.4345 67° East  Level Estimated
08:28AM 26.5192 106.5527 67° East  Level Estimated
08:29AM 26.5634 106.6711 67° East  Level Estimated
08:30AM 26.6075 106.7895 67° East  Level Estimated
08:31AM 26.6515 106.9080 67° East  Level Estimated
08:32AM 26.6954 107.0266 67° East  Level Estimated
08:33AM 26.7392 107.1453 68° East  Level Estimated
08:34AM 26.7829 107.2641 68° East  Level Estimated
08:35AM 26.8265 107.3830 68° East  Level Estimated
08:36AM 26.8700 107.5020 68° East  Level Estimated
08:37AM 26.9134 107.6211 68° East  Level Estimated
08:38AM 26.9568 107.7402 68° East  Level Estimated
08:39AM 27.0000 107.8595 68° East  Level Estimated
08:40AM 27.0431 107.9788 68° East  Level Estimated
08:41AM 27.0861 108.0983 68° East  Level Estimated
08:42AM 27.1290 108.2178 68° East  Level Estimated
08:43AM 27.1718 108.3374 68° East  Level Estimated
08:44AM 27.2145 108.4571 68° East  Level Estimated
08:45AM 27.2571 108.5769 68° East  Level Estimated
08:46AM 27.2996 108.6968 68° East  Level Estimated
08:47AM 27.3420 108.8168 68° East  Level Estimated
08:48AM 27.3843 108.9369 68° East  Level Estimated
08:49AM 27.4265 109.0571 68° East  Level Estimated
08:50AM 27.4686 109.1773 68° East  Level Estimated
08:51AM 27.5106 109.2977 69° East  Level Estimated
08:52AM 27.5524 109.4181 69° East  Level Estimated
08:53AM 27.5942 109.5386 69° East  Level Estimated
08:54AM 27.6359 109.6593 69° East  Level Estimated
08:55AM 27.6775 109.7800 69° East  Level Estimated
08:56AM 27.7189 109.9008 69° East  Level Estimated
08:57AM 27.7603 110.0217 69° East  Level Estimated
08:58AM 27.8015 110.1427 69° East  Level Estimated
08:59AM 27.8427 110.2638 69° East  Level Estimated
09:00AM 27.8837 110.3850 69° East  Level Estimated
09:01AM 27.9247 110.5062 69° East  Level Estimated
09:02AM 27.9655 110.6276 69° East  Level Estimated
09:03AM 28.0062 110.7490 69° East  Level Estimated
09:04AM 28.0468 110.8706 69° East  Level Estimated
09:05AM 28.0873 110.9922 69° East  Level Estimated
09:06AM 28.1277 111.1140 69° East  Level Estimated
09:07AM 28.1680 111.2358 69° East  Level Estimated
09:08AM 28.2082 111.3577 69° East  Level Estimated
09:09AM 28.2483 111.4797 70° East  Level Estimated
09:10AM 28.2883 111.6018 70° East  Level Estimated
09:11AM 28.3281 111.7240 70° East  Level Estimated
09:12AM 28.3679 111.8463 70° East  Level Estimated
09:13AM 28.4075 111.9686 70° East  Level Estimated
09:14AM 28.4471 112.0911 70° East  Level Estimated
09:15AM 28.4865 112.2136 70° East  Level Estimated
09:16AM 28.5258 112.3363 70° East  Level Estimated
09:17AM 28.5650 112.4590 70° East  Level Estimated
09:18AM 28.6041 112.5818 70° East  Level Estimated
09:19AM 28.6431 112.7048 70° East  Level Estimated
09:20AM 28.6820 112.8278 70° East  Level Estimated
09:21AM 28.7207 112.9509 70° East  Level Estimated
09:22AM 28.7594 113.0741 70° East  Level Estimated
09:23AM 28.7979 113.1973 70° East  Level Estimated
09:24AM 28.8363 113.3207 70° East  Level Estimated
09:25AM 28.8746 113.4442 70° East  Level Estimated
09:26AM 28.9128 113.5677 71° East  Level Estimated
09:27AM 28.9509 113.6914 71° East  Level Estimated
09:28AM 28.9889 113.8151 71° East  Level Estimated
09:29AM 29.0268 113.9390 71° East  Level Estimated
09:30AM 29.0645 114.0629 71° East  Level Estimated
09:31AM 29.1022 114.1869 71° East  Level Estimated
09:32AM 29.1397 114.3110 71° East  Level Estimated
09:33AM 29.1771 114.4352 71° East  Level Estimated
09:34AM 29.2144 114.5595 71° East  Level Estimated
09:35AM 29.2516 114.6838 71° East  Level Estimated
09:36AM 29.2886 114.8083 71° East  Level Estimated
09:37AM 29.3256 114.9329 71° East  Level Estimated
09:38AM 29.3624 115.0575 71° East  Level Estimated
09:39AM 29.3991 115.1822 71° East  Level Estimated
09:40AM 29.4357 115.3070 71° East  Level Estimated
09:41AM 29.4722 115.4320 71° East  Level Estimated
09:42AM 29.5086 115.5570 71° East  Level Estimated
09:43AM 29.5448 115.6820 72° East  Level Estimated
09:44AM 29.5809 115.8072 72° East  Level Estimated
09:45AM 29.6169 115.9325 72° East  Level Estimated
09:46AM 29.6528 116.0579 72° East  Level Estimated
09:47AM 29.6886 116.1833 72° East  Level Estimated
09:48AM 29.7243 116.3088 72° East  Level Estimated
09:49AM 29.7598 116.4345 72° East  Level Estimated
09:50AM 29.7952 116.5602 72° East  Level Estimated
09:51AM 29.8305 116.6860 72° East  Level Estimated
09:52AM 29.8657 116.8119 72° East  Level Estimated
09:53AM 29.9008 116.9379 72° East  Level Estimated
09:54AM 29.9357 117.0639 72° East  Level Estimated
09:55AM 29.9705 117.1901 72° East  Level Estimated
09:56AM 30.0052 117.3164 72° East  Level Estimated
09:57AM 30.0398 117.4427 72° East  Level Estimated
09:58AM 30.0743 117.5691 72° East  Level Estimated
09:59AM 30.1086 117.6956 73° East  Level Estimated
10:00AM 30.1428 117.8222 73° East  Level Estimated
10:01AM 30.1769 117.9489 73° East  Level Estimated
10:02AM 30.2109 118.0757 73° East  Level Estimated
10:03AM 30.2448 118.2026 73° East  Level Estimated
10:04AM 30.2785 118.3295 73° East  Level Estimated
10:05AM 30.3121 118.4565 73° East  Level Estimated
10:06AM 30.3456 118.5837 73° East  Level Estimated
10:07AM 30.3790 118.7109 73° East  Level Estimated
10:08AM 30.4122 118.8382 73° East  Level Estimated
10:09AM 30.4453 118.9656 73° East  Level Estimated
10:10AM 30.4783 119.0930 73° East  Level Estimated
10:11AM 30.5112 119.2206 73° East  Level Estimated
10:12AM 30.5439 119.3482 73° East  Level Estimated
10:13AM 30.5765 119.4760 73° East  Level Estimated
10:14AM 30.6091 119.6038 74° East  Level Estimated
10:15AM 30.6414 119.7317 74° East  Level Estimated
10:16AM 30.6737 119.8597 74° East  Level Estimated
10:17AM 30.7058 119.9877 74° East  Level Estimated
10:18AM 30.7378 120.1159 74° East  Level Estimated
10:19AM 30.7696 120.2441 74° East  Level Estimated
10:20AM 30.8014 120.3725 74° East  Level Estimated
10:21AM 30.8330 120.5009 74° East  Level Estimated
10:22AM 30.8645 120.6294 74° East  Level Estimated
10:23AM 30.8959 120.7579 74° East  Level Estimated
10:24AM 30.9271 120.8866 74° East  Level Estimated
10:25AM 30.9582 121.0154 74° East  Level Estimated
10:26AM 30.9892 121.1442 74° East  Level Estimated
10:27AM 31.0200 121.2731 74° East  Level Estimated
10:28AM 31.0508 121.4021 74° East  Level Estimated
10:29AM 31.0814 121.5312 74° East  Level Estimated
10:30AM 31.1118 121.6604 75° East  Level Estimated
10:31AM 31.1422 121.7896 75° East  Level Estimated
10:32AM 31.1428 121.7924 75° East  Level Estimated
10:33AM 31.1428 121.7924 221° Southwest  Level Estimated
10:34AM 31.1428 121.7924 221° Southwest  Level Estimated
10:35AM 31.1428 121.7924 221° Southwest  Level Estimated
10:36AM 31.1428 121.7924 221° Southwest  Level Estimated
10:37AM 31.1428 121.7924 221° Southwest  Level Estimated
10:38AM 31.1428 121.7924 221° Southwest  Level Estimated
10:39AM 31.1428 121.7924 221° Southwest  Level Estimated
10:40AM 31.1428 121.7924 221° Southwest  Level Estimated
10:41AM 31.1428 121.7924 221° Southwest  Level Estimated
10:42AM 31.1428 121.7924 221° Southwest  Level Estimated
10:43AM 31.1428 121.7924 221° Southwest  Level Estimated
10:44AM 31.1428 121.7924 221° Southwest  Level Estimated
10:45AM 31.1428 121.7924 221° Southwest  Level Estimated
10:46AM 31.1428 121.7924 221° Southwest  Level Estimated
10:47AM 31.1428 121.7924 221° Southwest  Level Estimated